Farmington Regional, MO

4:24 PM CST on December 06, 2016 (GMT -0600)
Farmington Regional | | Change Station

Elev 945 ft 37.76 °N, 90.43 °W | Updated 28 minutes ago

Overcast
Overcast
38 °F
Feels Like 30 °F
N
14
Wind Variable Wind from NW

Today
High -- | Low -- °F
--% Chance of Precip.
Yesterday
High -- | Low -- °F
Precip. -- in
Pressure 30.01 in
Visibility 10.0 miles
Clouds Overcast 1000 ft
Windchill 30 °F
Dew Point 34 °F
Humidity 86%
Rainfall 0.01 in
Snow Depth Not available.
7:03 AM 4:42 PM
Waxing Crescent, 45% visible
METAR KFAM 062156Z AUTO 31012KT 10SM OVC010 03/01 A3000 RMK AO2 SLP162 T00330011
Pressure 30.01 in
Visibility 10.0 miles
Clouds Overcast 1000 ft
Windchill 30 °F
Dew Point 34 °F
Humidity 86%
Rainfall 0.01 in
Snow Depth Not available.
7:03 AM 4:42 PM
Waxing Crescent, 45% visible
METAR KFAM 062156Z AUTO 31012KT 10SM OVC010 03/01 A3000 RMK AO2 SLP162 T00330011

10-Day Weather Forecast

Almanac

Astronomy

Dec. 06, 2016 Rise Set
Actual Time
Civil Twilight
Nautical Twilight
Astronomical Twilight
Moon
Length of Visible Light
Length of Day
Tomorrow will be .
, % of the Moon is Illuminated

Today's Extremes

State Highs State Lows

Community

WunderPhotos

Upload Photos

1,956,038 photos uploaded!

WunderBlog® & News

Nearby

Air Quality

  Air Quality AQ Index Pollutant
Not available.

Snow Depth

Station Depth Elevation

Earthquake Activity

City Distance Mag. Time & Date
Minimum magnitude displayed is 2.5.

Coastal Water Temperatures

Place Temperature

Stations

Nearby Weather Stations

Station Location Temp. Windchill Dew Point Humidity Wind Precip. Elev Updated Type
                   

Watches & Warnings

There are currently no watches in effect.